createdAt,value
2022-12-04T00:01:57.685Z,-0.24
2022-12-04T00:04:24.073Z,-0.18
2022-12-04T00:06:54.102Z,-0.29
2022-12-04T00:09:24.745Z,-0.39
2022-12-04T00:11:51.493Z,-0.61
2022-12-04T00:14:17.803Z,-0.57
2022-12-04T00:16:44.532Z,-0.65
2022-12-04T00:19:11.326Z,-0.76
2022-12-04T00:21:37.777Z,-0.69
2022-12-04T00:24:04.537Z,-0.64
2022-12-04T00:26:31.580Z,-0.54
2022-12-04T00:28:57.933Z,-0.51
2022-12-04T00:31:27.200Z,-0.38
2022-12-04T00:33:54.055Z,-0.48
2022-12-04T00:36:23.157Z,-0.71
2022-12-04T00:38:50.136Z,-0.57
2022-12-04T00:41:18.985Z,-0.47
2022-12-04T00:43:45.883Z,-0.49
2022-12-04T00:46:12.737Z,-0.62
2022-12-04T00:48:39.457Z,-0.48
2022-12-04T00:51:11.103Z,-0.48
2022-12-04T00:53:38.009Z,-0.69
2022-12-04T00:56:10.325Z,-0.58
2022-12-04T00:58:37.198Z,-0.40
2022-12-04T01:01:09.940Z,-0.37
2022-12-04T01:03:36.997Z,-0.52
2022-12-04T01:06:04.541Z,-0.62
2022-12-04T01:08:31.471Z,-0.58
2022-12-04T01:10:58.423Z,-0.63
2022-12-04T01:13:25.606Z,-0.54
2022-12-04T01:15:52.019Z,-0.54
2022-12-04T01:18:18.869Z,-0.60
2022-12-04T01:20:50.247Z,-0.44
2022-12-04T01:23:17.636Z,-0.37
2022-12-04T01:25:52.559Z,-0.36
2022-12-04T01:28:18.968Z,-0.40
2022-12-04T01:30:45.590Z,-0.38
2022-12-04T01:33:12.368Z,-0.36
2022-12-04T01:35:38.764Z,-0.36
2022-12-04T01:38:05.096Z,-0.45
2022-12-04T01:40:31.984Z,-0.52
2022-12-04T01:42:59.698Z,-0.40
2022-12-04T01:45:42.986Z,-0.32
2022-12-04T01:48:32.318Z,-0.29
2022-12-04T01:51:13.719Z,-0.34
2022-12-04T01:53:44.390Z,-0.16
2022-12-04T01:56:11.119Z,-0.33
2022-12-04T01:58:42.966Z,-0.21
2022-12-04T02:01:10.491Z,-0.12
2022-12-04T02:03:38.738Z,-0.26
2022-12-04T02:06:06.772Z,-0.37
2022-12-04T02:08:34.711Z,-0.17
2022-12-04T02:11:07.162Z,-0.27
2022-12-04T02:13:49.395Z,-0.26
2022-12-04T02:16:45.378Z,-0.15
2022-12-04T02:19:21.727Z,-0.25
2022-12-04T02:21:52.964Z,-0.05
2022-12-04T02:24:32.229Z,-0.04
2022-12-04T02:27:06.118Z,-0.14
2022-12-04T02:29:59.007Z,-0.08
2022-12-04T02:33:04.222Z,0.05
2022-12-04T02:35:36.325Z,-0.15
2022-12-04T02:38:14.216Z,-0.07
2022-12-04T02:41:01.613Z,-0.01
2022-12-04T02:43:39.352Z,-0.17
2022-12-04T02:46:11.938Z,-0.02
2022-12-04T02:48:41.564Z,-0.09
2022-12-04T02:51:11.596Z,-0.03
2022-12-04T02:53:45.115Z,-0.15
2022-12-04T02:56:16.686Z,-0.08
2022-12-04T02:58:49.866Z,-0.06
2022-12-04T03:01:21.864Z,0.01
2022-12-04T03:03:55.524Z,-0.13
2022-12-04T03:06:25.472Z,-0.09
2022-12-04T03:09:03.167Z,-0.03
2022-12-04T03:11:31.849Z,-0.11
2022-12-04T03:14:08.478Z,0.21
2022-12-04T03:16:41.040Z,0.17
2022-12-04T03:19:14.027Z,0.17
2022-12-04T03:21:46.627Z,0.21
2022-12-04T03:24:19.256Z,0.23
2022-12-04T03:26:57.178Z,0.24
2022-12-04T03:29:30.868Z,0.15
2022-12-04T03:32:22.210Z,0.00
2022-12-04T03:34:58.826Z,-0.09
2022-12-04T03:37:41.910Z,-0.09
2022-12-04T03:40:22.226Z,0.00
2022-12-04T03:42:56.552Z,-0.14
2022-12-04T03:45:40.064Z,0.18
2022-12-04T03:48:21.225Z,0.12
2022-12-04T03:50:59.103Z,0.09
2022-12-04T03:53:35.382Z,0.09
2022-12-04T03:56:15.790Z,0.27
2022-12-04T03:58:49.570Z,0.22
2022-12-04T04:01:20.840Z,0.25
2022-12-04T04:03:51.797Z,0.29
2022-12-04T04:06:28.321Z,0.36
2022-12-04T04:09:00.472Z,0.46
2022-12-04T04:11:33.312Z,0.39
2022-12-04T04:14:25.882Z,0.41
2022-12-04T04:17:16.599Z,0.37
2022-12-04T04:20:06.718Z,0.43
2022-12-04T04:22:56.230Z,0.29
2022-12-04T04:25:25.972Z,0.26
2022-12-04T04:27:54.056Z,0.31
2022-12-04T04:30:21.306Z,0.31
2022-12-04T04:33:08.495Z,0.16
2022-12-04T04:36:00.865Z,0.23
2022-12-04T04:38:45.759Z,0.30
2022-12-04T04:41:24.149Z,0.32
2022-12-04T04:44:15.353Z,0.22
2022-12-04T04:46:52.311Z,0.14
2022-12-04T04:49:23.364Z,0.31
2022-12-04T04:51:50.039Z,0.17
2022-12-04T04:54:17.738Z,0.13
2022-12-04T04:56:45.870Z,0.31
2022-12-04T04:59:12.730Z,0.45
2022-12-04T05:01:41.786Z,0.61
2022-12-04T05:04:08.217Z,0.59
2022-12-04T05:06:34.597Z,0.49
2022-12-04T05:09:01.531Z,0.39
2022-12-04T05:11:27.858Z,0.46
2022-12-04T05:13:54.213Z,0.31
2022-12-04T05:16:20.942Z,0.03
2022-12-04T05:19:05.805Z,0.22
2022-12-04T05:21:33.715Z,0.38
2022-12-04T05:24:00.535Z,0.44
2022-12-04T05:26:26.874Z,0.12
2022-12-04T05:28:53.489Z,0.27
2022-12-04T05:31:20.559Z,0.51
2022-12-04T05:33:46.979Z,0.39
2022-12-04T05:36:13.374Z,0.52
2022-12-04T05:38:40.096Z,0.40
2022-12-04T05:41:07.176Z,0.30
2022-12-04T05:43:34.083Z,0.23
2022-12-04T05:46:02.762Z,0.10
2022-12-04T05:48:29.176Z,-0.02
2022-12-04T05:50:55.930Z,0.10
2022-12-04T05:53:22.305Z,-0.07
2022-12-04T05:55:59.652Z,0.05
2022-12-04T05:58:26.434Z,0.06
2022-12-04T06:00:53.013Z,-0.08
2022-12-04T06:03:19.859Z,0.06
2022-12-04T06:05:46.523Z,0.28
2022-12-04T06:08:13.198Z,0.08
2022-12-04T06:10:40.150Z,0.05
2022-12-04T06:13:07.027Z,0.14
2022-12-04T06:15:38.318Z,0.10
2022-12-04T06:18:04.895Z,0.31
2022-12-04T06:20:31.597Z,0.07
2022-12-04T06:22:57.973Z,0.16
2022-12-04T06:25:24.659Z,0.09
2022-12-04T06:27:51.962Z,-0.02
2022-12-04T06:30:18.321Z,-0.11
2022-12-04T06:32:44.996Z,-0.22
2022-12-04T06:35:11.713Z,-0.28
2022-12-04T06:37:38.479Z,-0.15
2022-12-04T06:40:05.636Z,-0.09
2022-12-04T06:42:31.951Z,-0.04
2022-12-04T06:44:58.915Z,0.04
2022-12-04T06:47:25.247Z,-0.15
2022-12-04T06:49:51.679Z,-0.06
2022-12-04T06:52:18.803Z,0.11
2022-12-04T06:54:45.677Z,0.26
2022-12-04T06:57:11.986Z,0.33
2022-12-04T06:59:38.643Z,0.37
2022-12-04T07:02:05.297Z,0.39
2022-12-04T07:04:31.659Z,0.48
2022-12-04T07:06:57.970Z,0.26
2022-12-04T07:09:24.671Z,0.28
2022-12-04T07:11:51.025Z,0.43
2022-12-04T07:14:17.775Z,0.42
2022-12-04T07:16:44.238Z,0.31
2022-12-04T07:19:13.569Z,0.23
2022-12-04T07:21:40.869Z,0.50
2022-12-04T07:24:07.333Z,0.38
2022-12-04T07:26:34.095Z,0.51
2022-12-04T07:29:00.477Z,0.50
2022-12-04T07:31:28.908Z,0.54
2022-12-04T07:33:56.065Z,0.40
2022-12-04T07:36:24.176Z,0.30
2022-12-04T07:38:51.277Z,0.21
2022-12-04T07:41:19.561Z,0.24
2022-12-04T07:43:46.230Z,0.25
2022-12-04T07:46:18.210Z,0.19
2022-12-04T07:48:45.116Z,0.14
2022-12-04T07:51:17.274Z,0.20
2022-12-04T07:53:44.456Z,0.26
2022-12-04T07:56:12.712Z,0.29
2022-12-04T07:58:39.898Z,0.51
2022-12-04T08:01:16.863Z,0.67
2022-12-04T08:03:48.132Z,0.62
2022-12-04T08:06:17.696Z,0.71
2022-12-04T08:08:44.070Z,0.62
2022-12-04T08:11:13.624Z,0.74
2022-12-04T08:13:40.395Z,0.57
2022-12-04T08:16:08.763Z,0.37
2022-12-04T08:18:35.367Z,0.54
2022-12-04T08:21:11.665Z,0.33
2022-12-04T08:23:39.434Z,0.28
2022-12-04T08:26:06.812Z,0.56
2022-12-04T08:28:34.269Z,0.52
2022-12-04T08:31:10.092Z,0.25
2022-12-04T08:33:37.054Z,0.49
2022-12-04T08:36:07.598Z,0.60
2022-12-04T08:38:34.078Z,0.80
2022-12-04T08:41:02.350Z,0.93
2022-12-04T08:43:29.537Z,0.83
2022-12-04T08:46:02.030Z,0.79
2022-12-04T08:48:29.327Z,0.87
2022-12-04T08:50:55.928Z,0.77
2022-12-04T08:53:22.489Z,0.93
2022-12-04T08:55:49.281Z,0.62
2022-12-04T08:58:15.670Z,0.66
2022-12-04T09:00:42.489Z,0.59
2022-12-04T09:03:15.802Z,0.44
2022-12-04T09:05:42.846Z,0.54
2022-12-04T09:08:09.295Z,0.49
2022-12-04T09:10:36.995Z,0.44
2022-12-04T09:13:03.817Z,0.28
2022-12-04T09:15:30.387Z,0.24
2022-12-04T09:17:57.124Z,0.30
2022-12-04T09:20:23.733Z,0.47
2022-12-04T09:23:03.416Z,0.45
2022-12-04T09:25:31.664Z,0.75
2022-12-04T09:27:58.897Z,0.92
2022-12-04T09:30:25.519Z,0.67
2022-12-04T09:32:52.214Z,0.70
2022-12-04T09:35:19.333Z,0.48
2022-12-04T09:37:45.659Z,0.51
2022-12-04T09:40:27.527Z,0.66
2022-12-04T09:43:30.213Z,0.64
2022-12-04T09:46:02.430Z,0.53
2022-12-04T09:48:35.803Z,0.45
2022-12-04T09:51:06.266Z,0.57
2022-12-04T09:54:10.735Z,0.54
2022-12-04T09:56:37.572Z,0.53
2022-12-04T09:59:25.919Z,0.97
2022-12-04T10:02:01.303Z,1.06
2022-12-04T10:04:27.954Z,1.10
2022-12-04T10:07:19.701Z,0.83
2022-12-04T10:09:55.875Z,0.57
2022-12-04T10:12:31.869Z,0.64
2022-12-04T10:15:04.577Z,0.62
2022-12-04T10:17:49.625Z,0.64
2022-12-04T10:20:28.090Z,0.82
2022-12-04T10:23:18.262Z,0.90
2022-12-04T10:25:44.573Z,1.06
2022-12-04T10:28:10.831Z,0.62
2022-12-04T10:30:41.787Z,0.46
2022-12-04T10:33:20.125Z,0.29
2022-12-04T10:35:54.771Z,0.56
2022-12-04T10:38:33.360Z,1.01
2022-12-04T10:41:15.022Z,0.94
2022-12-04T10:43:41.655Z,1.18
2022-12-04T10:46:14.497Z,1.31
2022-12-04T10:48:43.168Z,1.20
2022-12-04T10:51:21.667Z,1.34
2022-12-04T10:53:49.413Z,1.36
2022-12-04T10:56:18.061Z,1.30
2022-12-04T10:58:56.574Z,1.49
2022-12-04T11:01:23.825Z,1.32
2022-12-04T11:04:07.985Z,1.39
2022-12-04T11:06:35.611Z,1.10
2022-12-04T11:09:03.588Z,0.97
2022-12-04T11:11:33.603Z,0.81
2022-12-04T11:14:22.524Z,0.93
2022-12-04T11:17:00.469Z,1.03
2022-12-04T11:19:29.474Z,1.15
2022-12-04T11:22:05.826Z,1.23
2022-12-04T11:24:37.733Z,1.28
2022-12-04T11:27:07.253Z,1.00
2022-12-04T11:29:40.806Z,0.89
2022-12-04T11:32:16.950Z,1.00
2022-12-04T11:34:45.562Z,0.99
2022-12-04T11:37:26.258Z,0.88
2022-12-04T11:39:55.246Z,0.88
2022-12-04T11:42:30.143Z,1.22
2022-12-04T11:45:02.828Z,1.32
2022-12-04T11:47:32.145Z,1.37
2022-12-04T11:50:03.670Z,1.20
2022-12-04T11:52:43.765Z,1.02
2022-12-04T11:55:28.891Z,0.86
2022-12-04T11:58:20.681Z,1.13
2022-12-04T12:01:13.300Z,1.10
2022-12-04T12:03:52.414Z,1.02
2022-12-04T12:06:40.031Z,0.79
2022-12-04T12:09:06.647Z,0.97
2022-12-04T12:11:40.097Z,1.30
2022-12-04T12:14:41.413Z,1.17
2022-12-04T12:17:25.544Z,1.62
2022-12-04T12:20:01.596Z,1.69
2022-12-04T12:22:52.913Z,1.30
2022-12-04T12:25:33.490Z,1.25
2022-12-04T12:28:24.872Z,0.91
2022-12-04T12:31:12.917Z,0.99
2022-12-04T12:34:01.872Z,0.67
2022-12-04T12:36:34.426Z,0.98
2022-12-04T12:39:12.584Z,1.11
2022-12-04T12:41:46.313Z,1.17
2022-12-04T12:44:24.808Z,1.29
2022-12-04T12:47:02.930Z,1.26
2022-12-04T12:49:40.902Z,1.28
2022-12-04T12:52:28.663Z,1.28
2022-12-04T12:55:01.623Z,1.33
2022-12-04T12:57:43.407Z,1.31
2022-12-04T13:00:23.086Z,1.34
2022-12-04T13:03:15.303Z,1.74
2022-12-04T13:05:49.580Z,1.58
2022-12-04T13:08:26.311Z,1.51
2022-12-04T13:11:19.353Z,1.53
2022-12-04T13:13:49.168Z,1.67
2022-12-04T13:16:36.506Z,1.62
2022-12-04T13:19:23.049Z,1.70
2022-12-04T13:22:13.830Z,1.69
2022-12-04T13:24:55.344Z,1.38
2022-12-04T13:27:42.434Z,1.32
2022-12-04T13:30:31.841Z,1.45
2022-12-04T13:33:29.482Z,1.57
2022-12-04T13:36:16.802Z,1.39
2022-12-04T13:39:16.429Z,1.47
2022-12-04T13:41:42.910Z,1.39
2022-12-04T13:44:23.187Z,1.48
2022-12-04T13:46:56.147Z,1.50
2022-12-04T13:49:29.977Z,1.57
2022-12-04T13:51:58.156Z,1.50
2022-12-04T13:54:56.773Z,1.69
2022-12-04T13:57:25.674Z,1.59
2022-12-04T14:00:05.569Z,1.56
2022-12-04T14:02:38.271Z,1.55
2022-12-04T14:05:08.108Z,1.66
2022-12-04T14:07:37.644Z,1.63
2022-12-04T14:10:26.885Z,1.31
2022-12-04T14:13:21.195Z,1.33
2022-12-04T14:15:48.750Z,1.31
2022-12-04T14:18:29.110Z,1.42
2022-12-04T14:21:02.320Z,1.63
2022-12-04T14:23:42.852Z,1.67
2022-12-04T14:26:33.113Z,1.57
2022-12-04T14:29:27.868Z,1.65
2022-12-04T14:31:57.712Z,1.28
2022-12-04T14:34:29.608Z,1.16
2022-12-04T14:36:57.258Z,1.46
2022-12-04T14:39:36.989Z,1.65
2022-12-04T14:42:25.176Z,1.65
2022-12-04T14:44:58.441Z,1.53
2022-12-04T14:47:54.114Z,1.64
2022-12-04T14:50:39.294Z,1.81
2022-12-04T14:53:14.787Z,1.72
2022-12-04T14:55:52.764Z,1.79
2022-12-04T14:58:30.093Z,1.79
2022-12-04T15:01:04.699Z,1.78
2022-12-04T15:03:44.562Z,1.70
2022-12-04T15:06:22.464Z,1.55
2022-12-04T15:09:14.798Z,1.30
2022-12-04T15:12:16.919Z,1.23
2022-12-04T15:14:48.683Z,1.33
2022-12-04T15:17:17.407Z,1.27
2022-12-04T15:19:44.177Z,1.07
2022-12-04T15:22:21.632Z,1.01
2022-12-04T15:24:48.524Z,1.15
2022-12-04T15:27:17.133Z,1.20
2022-12-04T15:29:49.416Z,1.33
2022-12-04T15:32:19.121Z,1.49
2022-12-04T15:34:50.037Z,1.53
2022-12-04T15:37:21.806Z,1.58
2022-12-04T15:39:49.861Z,1.31
2022-12-04T15:42:27.155Z,1.55
2022-12-04T15:45:03.810Z,1.63
2022-12-04T15:47:49.491Z,1.59
2022-12-04T15:50:15.749Z,1.60
2022-12-04T15:53:01.001Z,1.65
2022-12-04T15:55:30.359Z,1.71
2022-12-04T15:58:05.055Z,1.64
2022-12-04T16:00:40.043Z,1.69
2022-12-04T16:03:23.504Z,1.64
2022-12-04T16:05:50.017Z,1.55
2022-12-04T16:08:29.441Z,1.52
2022-12-04T16:11:05.449Z,1.56
2022-12-04T16:13:38.630Z,1.43
2022-12-04T16:16:08.087Z,1.52
2022-12-04T16:18:34.840Z,1.61
2022-12-04T16:21:01.301Z,1.59
2022-12-04T16:23:27.654Z,1.67
2022-12-04T16:25:54.501Z,1.71
2022-12-04T16:28:20.965Z,1.48
2022-12-04T16:30:47.559Z,1.55
2022-12-04T16:33:16.017Z,1.43
2022-12-04T16:35:42.797Z,1.39
2022-12-04T16:38:15.446Z,1.39
2022-12-04T16:40:43.170Z,1.15
2022-12-04T16:43:13.018Z,1.22
2022-12-04T16:45:42.903Z,1.10
2022-12-04T16:48:09.214Z,1.24
2022-12-04T16:50:36.068Z,1.32
2022-12-04T16:53:02.921Z,1.30
2022-12-04T16:55:39.286Z,1.32
2022-12-04T16:58:08.254Z,1.28
2022-12-04T17:00:36.290Z,1.17
2022-12-04T17:03:04.235Z,1.21
2022-12-04T17:05:33.781Z,1.16
2022-12-04T17:08:01.348Z,1.19
2022-12-04T17:10:29.313Z,1.18
2022-12-04T17:12:57.026Z,1.32
2022-12-04T17:15:23.353Z,1.13
2022-12-04T17:17:50.196Z,0.94
2022-12-04T17:20:19.303Z,0.95
2022-12-04T17:22:45.729Z,0.89
2022-12-04T17:25:12.502Z,0.92
2022-12-04T17:27:39.385Z,0.92
2022-12-04T17:30:08.669Z,0.91
2022-12-04T17:32:35.203Z,0.89
2022-12-04T17:35:02.786Z,0.88
2022-12-04T17:37:29.244Z,0.91
2022-12-04T17:39:55.611Z,1.20
2022-12-04T17:42:22.200Z,1.38
2022-12-04T17:44:48.685Z,1.50
2022-12-04T17:47:15.171Z,1.59
2022-12-04T17:49:41.639Z,1.69
2022-12-04T17:52:07.966Z,1.59
2022-12-04T17:54:34.582Z,1.52
2022-12-04T17:57:01.686Z,1.44
2022-12-04T17:59:28.084Z,1.57
2022-12-04T18:01:54.410Z,1.68
2022-12-04T18:04:20.919Z,1.77
2022-12-04T18:06:47.330Z,1.76
2022-12-04T18:09:16.151Z,1.63
2022-12-04T18:11:45.936Z,1.47
2022-12-04T18:14:17.694Z,1.36
2022-12-04T18:16:47.666Z,1.32
2022-12-04T18:19:14.969Z,1.12
2022-12-04T18:21:41.818Z,1.03
2022-12-04T18:24:08.802Z,1.10
2022-12-04T18:26:37.683Z,1.02
2022-12-04T18:29:04.834Z,1.05
2022-12-04T18:31:32.540Z,1.09
2022-12-04T18:33:59.017Z,1.11
2022-12-04T18:36:27.905Z,0.95
2022-12-04T18:38:56.897Z,0.91
2022-12-04T18:41:24.070Z,0.95
2022-12-04T18:43:50.973Z,0.91
2022-12-04T18:46:18.791Z,1.10
2022-12-04T18:48:46.603Z,1.09
2022-12-04T18:51:18.084Z,1.06
2022-12-04T18:53:44.578Z,0.94
2022-12-04T18:56:10.957Z,0.96
2022-12-04T18:58:37.696Z,0.84
2022-12-04T19:01:08.777Z,0.85
2022-12-04T19:03:35.234Z,0.90
2022-12-04T19:06:02.933Z,0.91
2022-12-04T19:08:33.249Z,1.09
2022-12-04T19:11:11.999Z,1.00
2022-12-04T19:13:38.402Z,0.93
2022-12-04T19:16:05.109Z,0.98
2022-12-04T19:18:32.299Z,0.96
2022-12-04T19:20:58.651Z,1.05
2022-12-04T19:23:25.048Z,1.04
2022-12-04T19:25:59.275Z,1.01
2022-12-04T19:28:27.579Z,0.91
2022-12-04T19:30:55.291Z,0.89
2022-12-04T19:33:22.790Z,0.88
2022-12-04T19:36:03.694Z,0.90
2022-12-04T19:38:31.937Z,0.82
2022-12-04T19:41:10.406Z,0.84
2022-12-04T19:43:39.347Z,0.83
2022-12-04T19:46:07.236Z,0.79
2022-12-04T19:48:34.375Z,0.75
2022-12-04T19:51:20.867Z,0.82
2022-12-04T19:53:48.147Z,0.90
2022-12-04T19:56:17.598Z,0.90
2022-12-04T19:58:45.006Z,0.73
2022-12-04T20:01:14.649Z,0.71
2022-12-04T20:03:41.549Z,0.72
2022-12-04T20:06:14.105Z,0.79
2022-12-04T20:08:41.366Z,0.89
2022-12-04T20:11:11.760Z,0.93
2022-12-04T20:13:40.026Z,1.07
2022-12-04T20:16:09.473Z,1.06
2022-12-04T20:18:37.631Z,1.09
2022-12-04T20:21:10.834Z,0.85
2022-12-04T20:23:42.263Z,1.05
2022-12-04T20:26:12.020Z,0.91
2022-12-04T20:28:39.087Z,0.93
2022-12-04T20:31:21.104Z,0.98
2022-12-04T20:33:49.458Z,0.91
2022-12-04T20:36:18.569Z,0.92
2022-12-04T20:38:45.442Z,1.07
2022-12-04T20:41:15.658Z,1.21
2022-12-04T20:43:43.261Z,1.28
2022-12-04T20:46:15.488Z,1.11
2022-12-04T20:48:48.063Z,1.09
2022-12-04T20:51:17.718Z,1.20
2022-12-04T20:53:45.659Z,1.02
2022-12-04T20:56:12.683Z,1.11
2022-12-04T20:58:40.083Z,1.09
2022-12-04T21:01:15.774Z,1.14
2022-12-04T21:03:43.062Z,1.06
2022-12-04T21:06:21.266Z,0.91
2022-12-04T21:08:56.672Z,0.79
2022-12-04T21:11:45.056Z,0.84
2022-12-04T21:14:33.457Z,0.82
2022-12-04T21:17:01.057Z,0.80
2022-12-04T21:19:27.465Z,0.87
2022-12-04T21:21:53.983Z,0.83
2022-12-04T21:24:22.797Z,0.83
2022-12-04T21:26:49.149Z,1.01
2022-12-04T21:29:16.258Z,1.06
2022-12-04T21:31:43.169Z,1.16
2022-12-04T21:34:11.985Z,1.15
2022-12-04T21:36:38.422Z,1.03
2022-12-04T21:39:05.370Z,0.95
2022-12-04T21:41:50.726Z,0.93
2022-12-04T21:44:18.204Z,0.96
2022-12-04T21:46:45.443Z,0.86
2022-12-04T21:49:14.022Z,0.88
2022-12-04T21:51:56.743Z,0.90
2022-12-04T21:54:24.302Z,0.76
2022-12-04T21:56:50.621Z,0.77
2022-12-04T21:59:17.022Z,0.74
2022-12-04T22:01:43.950Z,0.73
2022-12-04T22:04:10.396Z,0.75
2022-12-04T22:06:38.523Z,0.77
2022-12-04T22:09:10.847Z,0.75
2022-12-04T22:11:38.828Z,0.73
2022-12-04T22:14:05.190Z,0.63
2022-12-04T22:16:34.639Z,0.62
2022-12-04T22:19:04.690Z,0.64
2022-12-04T22:21:31.232Z,0.63
2022-12-04T22:23:59.424Z,0.52
2022-12-04T22:26:27.257Z,0.52
2022-12-04T22:28:54.393Z,0.50
2022-12-04T22:31:23.831Z,0.50
2022-12-04T22:33:53.128Z,0.48
2022-12-04T22:36:23.142Z,0.44
2022-12-04T22:41:36.124Z,0.47
2022-12-04T22:44:02.690Z,0.49
2022-12-04T22:46:29.280Z,0.48
2022-12-04T22:48:55.704Z,0.50
2022-12-04T22:51:22.672Z,0.51
2022-12-04T22:53:52.025Z,0.90
2022-12-04T22:56:28.224Z,1.00
2022-12-04T22:58:55.319Z,0.83
2022-12-04T23:01:26.971Z,0.63
2022-12-04T23:03:54.945Z,0.64
2022-12-04T23:06:23.395Z,1.01
2022-12-04T23:08:55.476Z,1.11
2022-12-04T23:11:23.162Z,1.16
2022-12-04T23:13:56.059Z,1.05
2022-12-04T23:16:24.009Z,0.70
2022-12-04T23:18:50.654Z,0.70
2022-12-04T23:21:18.457Z,0.39
2022-12-04T23:23:46.740Z,0.43
2022-12-04T23:26:15.762Z,0.43
2022-12-04T23:28:43.334Z,0.41
2022-12-04T23:31:11.382Z,0.30
2022-12-04T23:33:38.417Z,0.30
2022-12-04T23:36:07.442Z,0.32
2022-12-04T23:38:36.095Z,0.34
2022-12-04T23:41:10.496Z,0.23
2022-12-04T23:43:38.274Z,0.27
2022-12-04T23:46:10.687Z,0.27
2022-12-04T23:48:39.110Z,0.26
2022-12-04T23:51:06.111Z,0.44
2022-12-04T23:53:32.462Z,0.36
2022-12-04T23:56:02.941Z,0.31
2022-12-04T23:58:29.290Z,0.24
